sensor_id;sensor_type;location;lat;lon;timestamp;P1;durP1;ratioP1;P2;durP2;ratioP2
48034;SDS011;33812;46.480;6.834;2022-09-20T09:52:36;5.82;;;1.23;;
48034;SDS011;33812;46.480;6.834;2022-09-20T09:56:45;12.30;;;1.73;;
48034;SDS011;33812;46.480;6.834;2022-09-20T10:00:56;10.23;;;1.00;;
48034;SDS011;33812;46.480;6.834;2022-09-20T10:05:07;3.20;;;1.33;;
48034;SDS011;33812;46.480;6.834;2022-09-20T10:09:21;5.20;;;1.02;;
48034;SDS011;33812;46.480;6.834;2022-09-20T10:13:40;13.55;;;1.70;;
48034;SDS011;33812;46.480;6.834;2022-09-20T10:17:50;7.90;;;1.15;;
48034;SDS011;33812;46.480;6.834;2022-09-20T10:22:03;90.57;;;17.92;;
48034;SDS011;33812;46.480;6.834;2022-09-20T10:26:14;49.40;;;10.60;;
48034;SDS011;33812;46.480;6.834;2022-09-20T10:30:26;41.58;;;9.15;;
48034;SDS011;33812;46.480;6.834;2022-09-20T10:34:39;40.53;;;8.88;;
48034;SDS011;33812;46.480;6.834;2022-09-20T10:38:55;40.25;;;9.68;;
48034;SDS011;33812;46.480;6.834;2022-09-20T10:43:05;52.67;;;9.00;;
48034;SDS011;33812;46.480;6.834;2022-09-20T10:47:17;23.83;;;4.57;;
48034;SDS011;33812;46.480;6.834;2022-09-20T10:51:22;27.73;;;5.47;;
48034;SDS011;33812;46.480;6.834;2022-09-20T10:55:33;23.55;;;5.22;;
48034;SDS011;33812;46.480;6.834;2022-09-20T10:59:45;22.67;;;5.07;;
48034;SDS011;33812;46.480;6.834;2022-09-20T11:03:58;16.30;;;3.97;;
48034;SDS011;33812;46.480;6.834;2022-09-20T11:08:10;23.27;;;4.25;;
48034;SDS011;33812;46.480;6.834;2022-09-20T11:12:16;11.88;;;3.28;;
48034;SDS011;33812;46.480;6.834;2022-09-20T11:16:25;16.75;;;4.43;;
48034;SDS011;33812;46.480;6.834;2022-09-20T11:20:31;13.63;;;3.83;;
48034;SDS011;33812;46.480;6.834;2022-09-20T11:24:39;10.30;;;2.75;;
48034;SDS011;33812;46.480;6.834;2022-09-20T11:28:45;10.98;;;2.30;;
48034;SDS011;33812;46.480;6.834;2022-09-20T11:32:51;13.73;;;3.33;;
48034;SDS011;33812;46.480;6.834;2022-09-20T11:37:00;9.93;;;2.65;;
48034;SDS011;33812;46.480;6.834;2022-09-20T11:41:03;10.10;;;2.45;;
48034;SDS011;33812;46.480;6.834;2022-09-20T11:45:12;8.55;;;1.90;;
48034;SDS011;33812;46.480;6.834;2022-09-20T11:49:14;8.80;;;2.13;;
48034;SDS011;33812;46.480;6.834;2022-09-20T11:53:28;7.72;;;2.05;;
48034;SDS011;33812;46.480;6.834;2022-09-20T11:57:43;9.07;;;2.05;;
48034;SDS011;33812;46.480;6.834;2022-09-20T12:01:45;4.80;;;1.73;;
48034;SDS011;33812;46.480;6.834;2022-09-20T12:05:49;7.38;;;2.08;;
48034;SDS011;33812;46.480;6.834;2022-09-20T12:09:59;4.65;;;1.63;;
48034;SDS011;33812;46.480;6.834;2022-09-20T12:14:05;4.88;;;1.38;;
48034;SDS011;33812;46.480;6.834;2022-09-20T12:22:38;3.60;;;1.58;;
48034;SDS011;33812;46.480;6.834;2022-09-20T12:26:43;4.85;;;1.40;;
48034;SDS011;33812;46.480;6.834;2022-09-20T12:30:46;5.45;;;1.65;;
48034;SDS011;33812;46.480;6.834;2022-09-20T12:39:59;5.40;;;0.90;;
48034;SDS011;33812;46.480;6.834;2022-09-20T12:44:05;4.45;;;1.13;;
48034;SDS011;33812;46.480;6.834;2022-09-20T12:48:26;7.07;;;1.30;;
48034;SDS011;33812;46.480;6.834;2022-09-20T13:05:48;6.13;;;1.13;;
48034;SDS011;33812;46.480;6.834;2022-09-20T13:13:57;3.72;;;1.27;;
48034;SDS011;33812;46.480;6.834;2022-09-20T13:18:04;3.75;;;0.82;;
48034;SDS011;33812;46.480;6.834;2022-09-20T13:22:07;4.00;;;1.13;;
48034;SDS011;33812;46.480;6.834;2022-09-20T13:26:14;5.35;;;1.00;;
48034;SDS011;33812;46.480;6.834;2022-09-20T13:30:18;4.57;;;1.10;;
48034;SDS011;33812;46.480;6.834;2022-09-20T13:34:24;4.57;;;1.30;;
48034;SDS011;33812;46.480;6.834;2022-09-20T13:38:27;6.82;;;1.40;;
48034;SDS011;33812;46.480;6.834;2022-09-20T13:42:31;8.98;;;1.40;;
48034;SDS011;33812;46.480;6.834;2022-09-20T13:46:34;12.05;;;1.75;;
48034;SDS011;33812;46.480;6.834;2022-09-20T13:54:52;27.98;;;1.67;;
48034;SDS011;33812;46.480;6.834;2022-09-20T13:58:55;13.53;;;2.60;;
48034;SDS011;33812;46.480;6.834;2022-09-20T14:02:57;5.03;;;1.10;;
48034;SDS011;33812;46.480;6.834;2022-09-20T14:07:00;5.80;;;1.40;;
48034;SDS011;33812;46.480;6.834;2022-09-20T14:11:10;16.05;;;2.45;;
48034;SDS011;33812;46.480;6.834;2022-09-20T14:15:15;16.02;;;1.42;;
48034;SDS011;33812;46.480;6.834;2022-09-20T14:19:17;9.13;;;1.38;;
48034;SDS011;33812;46.480;6.834;2022-09-20T14:23:22;11.73;;;1.48;;
48034;SDS011;33812;46.480;6.834;2022-09-20T14:27:27;7.95;;;1.42;;
48034;SDS011;33812;46.480;6.834;2022-09-20T14:31:30;4.32;;;1.15;;
48034;SDS011;33812;46.480;6.834;2022-09-20T14:35:35;3.78;;;1.33;;
48034;SDS011;33812;46.480;6.834;2022-09-20T14:39:44;3.05;;;1.10;;
48034;SDS011;33812;46.480;6.834;2022-09-20T14:43:50;4.82;;;1.00;;
48034;SDS011;33812;46.480;6.834;2022-09-20T14:47:56;3.17;;;1.40;;
48034;SDS011;33812;46.480;6.834;2022-09-20T14:56:38;7.53;;;1.30;;
48034;SDS011;33812;46.480;6.834;2022-09-20T15:00:46;7.15;;;1.05;;
48034;SDS011;33812;46.480;6.834;2022-09-20T15:04:51;24.20;;;1.70;;
48034;SDS011;33812;46.480;6.834;2022-09-20T15:08:55;25.08;;;2.25;;
48034;SDS011;33812;46.480;6.834;2022-09-20T15:13:00;13.95;;;2.00;;
48034;SDS011;33812;46.480;6.834;2022-09-20T15:17:02;5.07;;;0.90;;
48034;SDS011;33812;46.480;6.834;2022-09-20T15:21:04;6.20;;;0.90;;
48034;SDS011;33812;46.480;6.834;2022-09-20T15:25:07;9.18;;;1.60;;
48034;SDS011;33812;46.480;6.834;2022-09-20T15:29:15;6.53;;;1.30;;
48034;SDS011;33812;46.480;6.834;2022-09-20T15:33:17;18.30;;;2.17;;
48034;SDS011;33812;46.480;6.834;2022-09-20T15:37:20;10.73;;;1.70;;
48034;SDS011;33812;46.480;6.834;2022-09-20T15:41:22;8.65;;;1.20;;
48034;SDS011;33812;46.480;6.834;2022-09-20T15:45:25;14.40;;;1.98;;
48034;SDS011;33812;46.480;6.834;2022-09-20T15:49:27;3.47;;;0.90;;
48034;SDS011;33812;46.480;6.834;2022-09-20T15:53:30;4.47;;;1.10;;
48034;SDS011;33812;46.480;6.834;2022-09-20T15:57:33;4.40;;;1.13;;
48034;SDS011;33812;46.480;6.834;2022-09-20T16:01:37;3.42;;;1.20;;
48034;SDS011;33812;46.480;6.834;2022-09-20T16:05:39;5.53;;;1.15;;
48034;SDS011;33812;46.480;6.834;2022-09-20T16:09:41;4.47;;;0.90;;
48034;SDS011;33812;46.480;6.834;2022-09-20T16:13:43;11.18;;;1.25;;
48034;SDS011;33812;46.480;6.834;2022-09-20T16:17:48;7.03;;;0.95;;
48034;SDS011;33812;46.480;6.834;2022-09-20T16:22:07;4.43;;;1.17;;
48034;SDS011;33812;46.480;6.834;2022-09-20T16:26:11;2.63;;;1.20;;
48034;SDS011;33812;46.480;6.834;2022-09-20T16:30:13;5.70;;;0.88;;
48034;SDS011;33812;46.480;6.834;2022-09-20T16:34:17;2.53;;;0.80;;
48034;SDS011;33812;46.480;6.834;2022-09-20T16:38:20;8.77;;;1.10;;
48034;SDS011;33812;46.480;6.834;2022-09-20T16:42:23;3.03;;;0.80;;
48034;SDS011;33812;46.480;6.834;2022-09-20T16:46:25;4.65;;;0.80;;
48034;SDS011;33812;46.480;6.834;2022-09-20T16:50:30;3.33;;;1.00;;
48034;SDS011;33812;46.480;6.834;2022-09-20T16:54:31;2.63;;;0.70;;
48034;SDS011;33812;46.480;6.834;2022-09-20T16:58:33;5.65;;;0.93;;
48034;SDS011;33812;46.480;6.834;2022-09-20T17:02:35;3.85;;;1.00;;
48034;SDS011;33812;46.480;6.834;2022-09-20T17:06:39;5.03;;;0.93;;
48034;SDS011;33812;46.480;6.834;2022-09-20T17:10:42;2.10;;;0.68;;
48034;SDS011;33812;46.480;6.834;2022-09-20T17:14:44;3.55;;;0.68;;
48034;SDS011;33812;46.480;6.834;2022-09-20T17:18:46;3.78;;;1.20;;
48034;SDS011;33812;46.480;6.834;2022-09-20T17:22:54;10.00;;;1.27;;
48034;SDS011;33812;46.480;6.834;2022-09-20T17:26:57;4.00;;;0.73;;
48034;SDS011;33812;46.480;6.834;2022-09-20T17:31:00;8.00;;;1.35;;
48034;SDS011;33812;46.480;6.834;2022-09-20T17:35:04;4.82;;;1.05;;
48034;SDS011;33812;46.480;6.834;2022-09-20T17:39:08;7.50;;;0.93;;
48034;SDS011;33812;46.480;6.834;2022-09-20T17:43:12;8.90;;;1.23;;
48034;SDS011;33812;46.480;6.834;2022-09-20T17:47:13;11.25;;;3.67;;
48034;SDS011;33812;46.480;6.834;2022-09-20T17:51:17;39.08;;;8.73;;
48034;SDS011;33812;46.480;6.834;2022-09-20T17:55:21;282.27;;;47.30;;
48034;SDS011;33812;46.480;6.834;2022-09-20T17:59:23;278.42;;;52.63;;
48034;SDS011;33812;46.480;6.834;2022-09-20T18:03:25;175.85;;;37.88;;
48034;SDS011;33812;46.480;6.834;2022-09-20T18:07:26;175.18;;;35.88;;
48034;SDS011;33812;46.480;6.834;2022-09-20T18:11:30;141.40;;;29.33;;
48034;SDS011;33812;46.480;6.834;2022-09-20T18:19:34;55.03;;;10.70;;
48034;SDS011;33812;46.480;6.834;2022-09-20T18:23:36;11.50;;;3.17;;
48034;SDS011;33812;46.480;6.834;2022-09-20T18:27:39;9.30;;;2.17;;
48034;SDS011;33812;46.480;6.834;2022-09-20T18:31:41;4.82;;;1.33;;
48034;SDS011;33812;46.480;6.834;2022-09-20T18:39:47;5.95;;;1.40;;
48034;SDS011;33812;46.480;6.834;2022-09-20T18:43:51;6.60;;;1.05;;
48034;SDS011;33812;46.480;6.834;2022-09-20T18:47:53;3.00;;;0.75;;
48034;SDS011;33812;46.480;6.834;2022-09-20T18:51:56;7.28;;;0.93;;
48034;SDS011;33812;46.480;6.834;2022-09-20T18:56:04;5.78;;;0.90;;
48034;SDS011;33812;46.480;6.834;2022-09-20T19:00:09;8.23;;;1.20;;
48034;SDS011;33812;46.480;6.834;2022-09-20T19:04:19;15.75;;;1.48;;
48034;SDS011;33812;46.480;6.834;2022-09-20T19:08:30;5.22;;;1.20;;
48034;SDS011;33812;46.480;6.834;2022-09-20T19:12:36;4.90;;;1.25;;
48034;SDS011;33812;46.480;6.834;2022-09-20T19:16:45;2.83;;;1.00;;
48034;SDS011;33812;46.480;6.834;2022-09-20T19:20:56;12.55;;;1.50;;
48034;SDS011;33812;46.480;6.834;2022-09-20T19:25:09;5.82;;;1.23;;
48034;SDS011;33812;46.480;6.834;2022-09-20T19:29:20;8.98;;;1.73;;
48034;SDS011;33812;46.480;6.834;2022-09-20T19:33:25;8.40;;;1.23;;
48034;SDS011;33812;46.480;6.834;2022-09-20T19:37:29;2.92;;;1.02;;
48034;SDS011;33812;46.480;6.834;2022-09-20T19:41:40;5.82;;;1.25;;
48034;SDS011;33812;46.480;6.834;2022-09-20T19:45:52;3.40;;;1.25;;
48034;SDS011;33812;46.480;6.834;2022-09-20T19:50:06;12.52;;;1.08;;
48034;SDS011;33812;46.480;6.834;2022-09-20T19:54:15;4.80;;;1.20;;
48034;SDS011;33812;46.480;6.834;2022-09-20T19:58:18;5.45;;;1.23;;
48034;SDS011;33812;46.480;6.834;2022-09-20T20:06:31;4.97;;;1.20;;
48034;SDS011;33812;46.480;6.834;2022-09-20T20:10:37;5.50;;;1.38;;
48034;SDS011;33812;46.480;6.834;2022-09-20T20:14:52;6.90;;;1.00;;
48034;SDS011;33812;46.480;6.834;2022-09-20T20:19:06;4.82;;;1.10;;
48034;SDS011;33812;46.480;6.834;2022-09-20T20:23:35;4.60;;;1.15;;
48034;SDS011;33812;46.480;6.834;2022-09-20T20:27:46;4.70;;;0.80;;
48034;SDS011;33812;46.480;6.834;2022-09-20T20:31:48;6.30;;;1.05;;
48034;SDS011;33812;46.480;6.834;2022-09-20T20:35:53;4.00;;;0.90;;
48034;SDS011;33812;46.480;6.834;2022-09-20T20:39:56;4.70;;;1.20;;
48034;SDS011;33812;46.480;6.834;2022-09-20T20:43:58;6.07;;;1.30;;
48034;SDS011;33812;46.480;6.834;2022-09-20T20:48:04;6.47;;;0.93;;
48034;SDS011;33812;46.480;6.834;2022-09-20T20:52:06;5.95;;;0.80;;
48034;SDS011;33812;46.480;6.834;2022-09-20T20:56:10;4.43;;;1.15;;
48034;SDS011;33812;46.480;6.834;2022-09-20T21:00:13;2.30;;;0.60;;
48034;SDS011;33812;46.480;6.834;2022-09-20T21:04:15;4.13;;;0.73;;
48034;SDS011;33812;46.480;6.834;2022-09-20T21:08:17;5.38;;;0.95;;
48034;SDS011;33812;46.480;6.834;2022-09-20T21:12:20;3.47;;;1.15;;
48034;SDS011;33812;46.480;6.834;2022-09-20T21:16:22;3.20;;;0.77;;
48034;SDS011;33812;46.480;6.834;2022-09-20T21:20:25;2.15;;;0.95;;
48034;SDS011;33812;46.480;6.834;2022-09-20T21:24:27;2.63;;;0.80;;
48034;SDS011;33812;46.480;6.834;2022-09-20T21:28:30;5.05;;;0.85;;
48034;SDS011;33812;46.480;6.834;2022-09-20T21:32:33;5.38;;;0.95;;
48034;SDS011;33812;46.480;6.834;2022-09-20T21:36:36;8.68;;;1.20;;
48034;SDS011;33812;46.480;6.834;2022-09-20T21:40:40;3.92;;;1.02;;
48034;SDS011;33812;46.480;6.834;2022-09-20T21:44:43;1.17;;;0.60;;
48034;SDS011;33812;46.480;6.834;2022-09-20T21:48:45;5.05;;;0.73;;
48034;SDS011;33812;46.480;6.834;2022-09-20T21:52:48;3.58;;;0.70;;
48034;SDS011;33812;46.480;6.834;2022-09-20T21:56:50;2.00;;;0.63;;
48034;SDS011;33812;46.480;6.834;2022-09-20T22:00:57;1.55;;;0.65;;
48034;SDS011;33812;46.480;6.834;2022-09-20T22:05:00;4.18;;;0.73;;
48034;SDS011;33812;46.480;6.834;2022-09-20T22:09:02;2.45;;;0.85;;
48034;SDS011;33812;46.480;6.834;2022-09-20T22:13:06;3.20;;;0.93;;
48034;SDS011;33812;46.480;6.834;2022-09-20T22:17:09;2.05;;;0.60;;
48034;SDS011;33812;46.480;6.834;2022-09-20T22:21:11;2.55;;;1.13;;
48034;SDS011;33812;46.480;6.834;2022-09-20T22:25:14;1.90;;;1.13;;
48034;SDS011;33812;46.480;6.834;2022-09-20T22:29:17;1.80;;;0.70;;
48034;SDS011;33812;46.480;6.834;2022-09-20T22:33:20;0.77;;;0.52;;
48034;SDS011;33812;46.480;6.834;2022-09-20T22:37:22;1.85;;;0.57;;
48034;SDS011;33812;46.480;6.834;2022-09-20T22:41:24;1.95;;;0.68;;
48034;SDS011;33812;46.480;6.834;2022-09-20T22:45:26;1.90;;;0.77;;
48034;SDS011;33812;46.480;6.834;2022-09-20T22:49:29;1.50;;;0.60;;
48034;SDS011;33812;46.480;6.834;2022-09-20T22:53:31;1.65;;;0.70;;
48034;SDS011;33812;46.480;6.834;2022-09-20T22:57:33;2.70;;;0.63;;
48034;SDS011;33812;46.480;6.834;2022-09-20T23:01:37;2.05;;;0.63;;
48034;SDS011;33812;46.480;6.834;2022-09-20T23:05:42;1.25;;;0.43;;
48034;SDS011;33812;46.480;6.834;2022-09-20T23:09:45;1.70;;;0.73;;
48034;SDS011;33812;46.480;6.834;2022-09-20T23:13:51;1.65;;;0.80;;
48034;SDS011;33812;46.480;6.834;2022-09-20T23:17:54;2.80;;;0.55;;
48034;SDS011;33812;46.480;6.834;2022-09-20T23:21:57;1.75;;;0.47;;
48034;SDS011;33812;46.480;6.834;2022-09-20T23:26:03;2.22;;;0.57;;
48034;SDS011;33812;46.480;6.834;2022-09-20T23:30:07;2.65;;;0.70;;
48034;SDS011;33812;46.480;6.834;2022-09-20T23:34:09;3.80;;;0.60;;
48034;SDS011;33812;46.480;6.834;2022-09-20T23:38:13;1.02;;;0.50;;
48034;SDS011;33812;46.480;6.834;2022-09-20T23:42:15;1.65;;;0.47;;
48034;SDS011;33812;46.480;6.834;2022-09-20T23:46:17;2.22;;;0.65;;
48034;SDS011;33812;46.480;6.834;2022-09-20T23:50:20;2.03;;;0.65;;
48034;SDS011;33812;46.480;6.834;2022-09-20T23:54:23;1.10;;;0.50;;
48034;SDS011;33812;46.480;6.834;2022-09-20T23:58:25;2.78;;;0.40;;
